Time;durP1;ratioP1;P1;durP2;ratioP2;P2;SDS_P1;SDS_P2;PMS_P1;PMS_P2;Temp;Humidity;BMP_temperature;BMP_pressure;BME280_temperature;BME280_humidity;BME280_pressure;Samples;Min_cycle;Max_cycle;Signal;HPM_P1;HPM_P2
2021/10/15 00:01:42;;;;;;;6.75;2.50;;;;;;;16.39;55.44;101677.44;4985503;28;119266;-73
2021/10/15 00:04:09;;;;;;;6.65;2.88;;;;;;;16.39;55.41;101673.88;4989905;28;119728;-73
2021/10/15 00:06:36;;;;;;;5.45;2.58;;;;;;;16.35;55.46;101670.53;4986284;28;124038;-73
2021/10/15 00:09:16;;;;;;;6.80;2.50;;;;;;;16.33;55.28;101661.72;4972606;28;124170;-72
2021/10/15 00:11:57;;;;;;;5.60;2.65;;;;;;;16.30;55.38;101664.59;4970582;28;119156;-73
2021/10/15 00:14:24;;;;;;;4.93;2.40;;;;;;;16.27;55.30;101672.78;4988961;28;119113;-73
2021/10/15 00:16:51;;;;;;;4.18;2.40;;;;;;;16.25;55.47;101670.16;4988176;28;123750;-73
2021/10/15 00:19:18;;;;;;;4.82;2.70;;;;;;;16.25;55.39;101658.63;4988172;28;123914;-73
2021/10/15 00:21:45;;;;;;;4.28;2.20;;;;;;;16.24;55.71;101662.25;4967911;28;118390;-73
2021/10/15 00:24:12;;;;;;;5.05;2.75;;;;;;;16.23;55.47;101660.53;4988308;28;119209;-73
2021/10/15 00:26:39;;;;;;;5.95;2.38;;;;;;;16.22;55.51;101648.97;4970177;28;124520;-73
2021/10/15 00:29:09;;;;;;;4.32;2.30;;;;;;;16.22;55.36;101653.44;4953436;28;123027;-73
2021/10/15 00:31:36;;;;;;;4.13;2.10;;;;;;;16.21;55.53;101657.06;4987808;28;120365;-73
2021/10/15 00:34:03;;;;;;;3.30;1.88;;;;;;;16.22;55.65;101648.97;4985581;28;119831;-73
2021/10/15 00:36:30;;;;;;;4.88;2.40;;;;;;;16.22;55.02;101637.41;4964798;28;123898;-73
2021/10/15 00:38:57;;;;;;;5.05;2.22;;;;;;;16.23;55.08;101631.13;4985654;28;123828;-73
2021/10/15 00:41:24;;;;;;;7.10;2.20;;;;;;;16.22;55.06;101632.06;4952712;28;118632;-73
2021/10/15 00:44:07;;;;;;;4.85;2.42;;;;;;;16.19;55.03;101637.59;4988070;28;119424;-73
2021/10/15 00:46:36;;;;;;;3.92;2.10;;;;;;;16.18;55.19;101630.50;4984609;28;123025;-73
2021/10/15 00:49:08;;;;;;;3.42;2.20;;;;;;;16.15;54.91;101621.72;4987519;28;123902;-73
2021/10/15 00:51:36;;;;;;;5.68;2.47;;;;;;;16.15;54.90;101621.72;4967348;28;119893;-73
2021/10/15 00:54:04;;;;;;;7.25;2.80;;;;;;;16.14;55.00;101617.34;4987481;28;118939;-73
2021/10/15 00:56:32;;;;;;;3.83;2.40;;;;;;;16.13;55.14;101596.91;4969204;28;123937;-73
2021/10/15 00:59:01;;;;;;;3.85;2.47;;;;;;;16.11;54.94;101604.13;4962355;28;124005;-70
2021/10/15 01:01:29;;;;;;;5.90;2.30;;;;;;;16.11;55.08;101593.44;4968697;28;118691;-73
2021/10/15 01:03:58;;;;;;;4.50;2.55;;;;;;;16.10;55.18;101597.06;4957729;28;119455;-71
2021/10/15 01:06:27;;;;;;;6.00;2.50;;;;;;;16.09;54.92;101595.34;4969655;28;123953;-72
2021/10/15 01:08:55;;;;;;;3.85;2.25;;;;;;;16.07;55.14;101591.91;4985206;28;124613;-70
2021/10/15 01:11:22;;;;;;;3.50;2.22;;;;;;;16.06;55.12;101587.50;4965998;28;119071;-71
2021/10/15 01:13:50;;;;;;;8.10;2.75;;;;;;;16.04;55.04;101592.06;4987819;28;119714;-71
2021/10/15 01:16:22;;;;;;;5.28;2.28;;;;;;;16.04;55.16;101586.72;4983973;28;124135;-71
2021/10/15 01:18:49;;;;;;;3.22;2.20;;;;;;;16.02;55.08;101583.28;4967036;28;124160;-71
2021/10/15 01:21:16;;;;;;;4.75;1.95;;;;;;;16.01;55.12;101586.91;4952229;28;119417;-71
2021/10/15 01:23:43;;;;;;;5.65;2.40;;;;;;;16.00;55.15;101585.16;4984742;28;119945;-71
2021/10/15 01:26:10;;;;;;;6.13;2.35;;;;;;;15.98;55.10;101581.72;4968623;28;122855;-71
2021/10/15 01:28:37;;;;;;;4.80;2.60;;;;;;;15.95;55.27;101576.53;4967798;28;122828;-72
2021/10/15 01:31:05;;;;;;;5.35;2.65;;;;;;;15.92;55.30;101576.75;4984417;28;119799;-71
2021/10/15 01:33:32;;;;;;;6.95;3.00;;;;;;;15.90;55.22;101567.94;4987227;28;119558;-71
2021/10/15 01:36:00;;;;;;;6.18;2.80;;;;;;;15.89;55.38;101568.88;4961041;28;122942;-70
2021/10/15 01:38:27;;;;;;;6.13;3.00;;;;;;;15.88;55.36;101567.16;4986479;28;124513;-71
2021/10/15 01:40:55;;;;;;;5.15;3.20;;;;;;;15.86;55.49;101561.03;4969302;28;119115;-71
2021/10/15 01:43:26;;;;;;;4.53;2.88;;;;;;;15.85;55.55;101559.31;4969689;28;119753;-71
2021/10/15 01:45:53;;;;;;;3.50;2.30;;;;;;;15.84;55.51;101557.59;4983934;28;124303;-72
2021/10/15 01:48:21;;;;;;;7.38;2.97;;;;;;;15.81;55.50;101560.44;4968292;28;124305;-71
2021/10/15 01:50:49;;;;;;;7.07;3.10;;;;;;;15.81;55.68;101552.44;4987494;28;120075;-71
2021/10/15 01:53:16;;;;;;;4.65;2.60;;;;;;;15.80;55.67;101550.69;4967043;28;118142;-71
2021/10/15 01:55:43;;;;;;;6.68;2.80;;;;;;;15.76;55.69;101550.88;4986673;28;123509;-71
2021/10/15 01:58:11;;;;;;;6.50;3.00;;;;;;;15.75;55.71;101554.50;4986416;28;123678;-71
2021/10/15 02:00:39;;;;;;;6.43;2.83;;;;;;;15.72;55.70;101549.28;4987041;28;119933;-71
2021/10/15 02:03:06;;;;;;;5.63;3.20;;;;;;;15.71;55.75;101542.22;4968366;28;117859;-71
2021/10/15 02:05:34;;;;;;;4.40;2.65;;;;;;;15.71;55.92;101542.22;4985255;28;124577;-71
2021/10/15 02:08:02;;;;;;;5.90;2.65;;;;;;;15.70;56.08;101551.16;4986169;28;124189;-71
2021/10/15 02:10:29;;;;;;;5.38;2.72;;;;;;;15.67;55.97;101538.00;4984136;28;120253;-71
2021/10/15 02:12:56;;;;;;;5.70;3.10;;;;;;;15.65;56.04;101542.56;4987202;28;119929;-71
2021/10/15 02:15:23;;;;;;;7.43;2.88;;;;;;;15.63;56.25;101528.41;4986749;28;126691;-71
2021/10/15 02:17:51;;;;;;;5.30;2.92;;;;;;;15.62;56.20;101532.03;4987682;28;124601;-71
2021/10/15 02:20:19;;;;;;;8.00;2.83;;;;;;;15.61;56.16;101530.31;4988343;28;119217;-71
2021/10/15 02:22:48;;;;;;;6.72;3.13;;;;;;;15.61;56.29;101530.31;4970367;28;118370;-71
2021/10/15 02:25:17;;;;;;;6.10;2.95;;;;;;;15.59;56.25;101521.53;4989431;28;124849;-71
2021/10/15 02:27:46;;;;;;;8.07;3.03;;;;;;;15.58;56.20;101519.81;4969876;28;122664;-71
2021/10/15 02:30:15;;;;;;;5.85;2.75;;;;;;;15.57;56.31;101523.41;4954184;28;118176;-71
2021/10/15 02:32:43;;;;;;;6.45;3.17;;;;;;;15.55;56.23;101519.97;4991551;28;119606;-71
2021/10/15 02:35:11;;;;;;;7.63;3.22;;;;;;;15.54;56.37;101512.94;4967828;28;122821;-71
2021/10/15 02:37:39;;;;;;;6.82;3.40;;;;;;;15.51;56.17;101508.59;4989145;28;124005;-71
2021/10/15 02:40:06;;;;;;;6.70;3.00;;;;;;;15.49;56.42;101504.31;4990121;28;119338;-71
2021/10/15 02:42:34;;;;;;;6.47;3.17;;;;;;;15.49;56.31;101498.97;4958156;28;118214;-71
2021/10/15 02:45:03;;;;;;;7.07;3.28;;;;;;;15.47;56.42;101495.53;4989584;28;124816;-71
2021/10/15 02:47:30;;;;;;;6.72;3.10;;;;;;;15.47;56.50;101492.84;4971351;28;124358;-71
2021/10/15 02:49:57;;;;;;;5.65;3.33;;;;;;;15.47;56.60;101490.19;4989033;28;118398;-71
2021/10/15 02:52:24;;;;;;;7.53;3.10;;;;;;;15.46;56.62;101488.44;4971412;28;118189;-72
2021/10/15 02:54:51;;;;;;;4.93;2.92;;;;;;;15.45;56.34;101481.41;4989362;28;123946;-71
2021/10/15 02:57:18;;;;;;;6.95;3.05;;;;;;;15.45;56.48;101489.41;4989378;28;123620;-71
2021/10/15 02:59:46;;;;;;;6.00;2.83;;;;;;;15.44;56.36;101475.19;4987640;28;120096;-72
2021/10/15 03:02:14;;;;;;;6.25;3.47;;;;;;;15.42;56.59;101470.88;4989585;28;119931;-72
2021/10/15 03:04:42;;;;;;;7.38;2.97;;;;;;;15.41;56.62;101474.47;4989088;28;124037;-72
2021/10/15 03:07:09;;;;;;;7.70;3.17;;;;;;;15.38;56.60;101471.03;4988884;28;123759;-72
2021/10/15 03:09:36;;;;;;;6.63;3.72;;;;;;;15.36;56.63;101467.59;4987679;28;119975;-69
2021/10/15 03:12:05;;;;;;;5.70;3.35;;;;;;;15.35;56.56;101465.88;4970813;28;119731;-70
2021/10/15 03:14:33;;;;;;;7.45;3.15;;;;;;;15.32;56.57;101463.38;4987619;28;124236;-70
2021/10/15 03:17:01;;;;;;;5.15;3.22;;;;;;;15.31;56.68;101463.44;4988542;28;124432;-69
2021/10/15 03:19:28;;;;;;;5.75;3.33;;;;;;;15.28;56.61;101467.16;4988720;28;118918;-70
2021/10/15 03:21:55;;;;;;;5.85;3.47;;;;;;;15.28;56.72;101469.84;4989166;28;118754;-70
2021/10/15 03:24:22;;;;;;;7.40;3.45;;;;;;;15.27;56.70;101467.25;4988329;28;124216;-69
2021/10/15 03:26:49;;;;;;;5.53;3.35;;;;;;;15.27;56.73;101462.75;4988872;28;123642;-69
2021/10/15 03:29:16;;;;;;;6.13;3.30;;;;;;;15.26;56.88;101461.06;4965971;28;118606;-70
2021/10/15 03:31:43;;;;;;;5.82;3.13;;;;;;;15.25;56.93;101461.97;4970749;28;118847;-69
2021/10/15 03:34:11;;;;;;;5.47;3.35;;;;;;;15.25;57.02;101464.66;4988644;28;123823;-70
2021/10/15 03:36:38;;;;;;;6.05;3.30;;;;;;;15.25;57.14;101453.97;4969775;28;123121;-69
2021/10/15 03:39:05;;;;;;;5.95;3.33;;;;;;;15.24;57.14;101452.28;4971255;28;120877;-68
2021/10/15 03:41:32;;;;;;;7.68;3.35;;;;;;;15.24;57.17;101449.59;4969923;28;118325;-67
2021/10/15 03:43:59;;;;;;;5.75;3.45;;;;;;;15.25;57.17;101453.97;4988051;28;124325;-68
2021/10/15 03:46:26;;;;;;;5.88;3.13;;;;;;;15.25;57.24;101448.63;4984995;28;124488;-70
2021/10/15 03:48:53;;;;;;;6.85;3.50;;;;;;;15.25;57.28;101443.31;4988058;28;120404;-67
2021/10/15 03:51:20;;;;;;;10.68;3.55;;;;;;;15.25;57.19;101437.97;4970950;28;119867;-66
2021/10/15 03:53:47;;;;;;;6.75;3.53;;;;;;;15.25;57.31;101437.97;4985647;28;124232;-67
2021/10/15 03:56:15;;;;;;;6.60;3.53;;;;;;;15.25;57.29;101432.63;4987948;28;124000;-70
2021/10/15 03:58:42;;;;;;;6.78;3.58;;;;;;;15.25;57.27;101421.94;4970305;28;119456;-68
2021/10/15 04:01:09;;;;;;;5.50;3.22;;;;;;;15.26;57.22;101413.03;4988408;28;119429;-67
2021/10/15 04:03:36;;;;;;;7.65;3.95;;;;;;;15.26;57.32;101418.34;4955025;28;122878;-68
2021/10/15 04:06:03;;;;;;;7.53;3.75;;;;;;;15.25;57.46;101416.63;4954625;28;122747;-68
2021/10/15 04:08:30;;;;;;;7.32;3.88;;;;;;;15.25;57.44;101421.94;4983204;22;119258;-69
2021/10/15 04:10:58;;;;;;;6.88;3.65;;;;;;;15.24;57.44;101417.59;4954532;28;118798;-68
2021/10/15 04:13:25;;;;;;;6.22;3.70;;;;;;;15.23;57.57;101415.84;4954895;28;123135;-69
2021/10/15 04:15:52;;;;;;;9.07;3.97;;;;;;;15.21;57.58;101415.06;4960412;28;123608;-69
2021/10/15 04:18:19;;;;;;;6.95;3.60;;;;;;;15.23;57.77;101418.50;4956795;28;119930;-69
2021/10/15 04:20:46;;;;;;;7.63;3.80;;;;;;;15.23;57.86;101418.50;4950037;28;119513;-69
2021/10/15 04:23:13;;;;;;;8.35;4.10;;;;;;;15.24;57.90;101404.25;4955011;28;124662;-69
2021/10/15 04:25:40;;;;;;;5.82;3.75;;;;;;;15.26;57.89;101412.16;4951207;28;124236;-69
2021/10/15 04:28:08;;;;;;;7.80;4.30;;;;;;;15.27;57.84;101414.72;4962041;28;119192;-69
2021/10/15 04:30:35;;;;;;;9.35;4.05;;;;;;;15.28;58.13;101410.28;4955233;28;118998;-69
2021/10/15 04:33:03;;;;;;;7.20;4.13;;;;;;;15.29;58.15;101407.50;4951139;28;125008;-69
2021/10/15 04:35:30;;;;;;;7.68;4.32;;;;;;;15.29;58.05;101410.16;4943623;28;122630;-69
2021/10/15 04:37:57;;;;;;;7.75;4.50;;;;;;;15.31;58.31;101400.28;4942091;28;119582;-69
2021/10/15 04:40:24;;;;;;;8.35;4.63;;;;;;;15.33;58.23;101398.38;4949566;28;120628;-69
2021/10/15 04:42:51;;;;;;;8.52;4.45;;;;;;;15.34;58.25;101394.75;4956569;28;124238;-69
2021/10/15 04:45:18;;;;;;;9.57;4.93;;;;;;;15.37;58.42;101391.94;4957924;28;124625;-68
2021/10/15 04:47:45;;;;;;;9.05;4.18;;;;;;;15.39;58.40;101397.19;4946081;28;119210;-68
2021/10/15 04:50:12;;;;;;;11.50;4.60;;;;;;;15.41;58.48;101394.41;4956993;28;119145;-68
2021/10/15 04:52:40;;;;;;;9.60;4.38;;;;;;;15.44;58.48;101392.41;4955425;28;124116;-69
2021/10/15 04:55:07;;;;;;;7.32;4.05;;;;;;;15.45;58.61;101390.63;4956161;28;123926;-69
2021/10/15 04:57:34;;;;;;;7.78;4.40;;;;;;;15.46;58.67;101390.53;4955904;28;119576;-69
2021/10/15 05:00:06;;;;;;;7.88;4.82;;;;;;;15.50;58.71;101396.56;4942826;28;119199;-71
2021/10/15 05:02:41;;;;;;;10.50;4.70;;;;;;;15.53;58.71;101399.06;4957898;28;124224;-70
2021/10/15 05:05:09;;;;;;;9.18;4.57;;;;;;;15.56;58.66;101398.91;4954013;28;125101;-71
2021/10/15 05:07:38;;;;;;;11.13;4.72;;;;;;;15.58;58.81;101397.00;4965108;28;119528;-70
2021/10/15 05:10:06;;;;;;;8.02;4.68;;;;;;;15.62;58.60;101387.84;4958778;28;119438;-70
2021/10/15 05:12:33;;;;;;;7.95;4.63;;;;;;;15.63;58.73;101378.88;4943058;28;123137;-70
2021/10/15 05:15:00;;;;;;;8.38;4.90;;;;;;;15.64;58.57;101382.44;4952586;28;124728;-70
2021/10/15 05:17:30;;;;;;;6.65;4.10;;;;;;;15.65;58.66;101382.34;4949087;28;119411;-70
2021/10/15 05:19:58;;;;;;;7.47;4.22;;;;;;;15.66;58.66;101384.06;4937008;28;118306;-70
2021/10/15 05:22:25;;;;;;;7.60;4.60;;;;;;;15.66;58.80;101384.06;4951643;28;124198;-70
2021/10/15 05:24:52;;;;;;;10.05;4.55;;;;;;;15.67;58.79;101385.78;4957354;28;124084;-71
2021/10/15 05:27:20;;;;;;;8.32;4.70;;;;;;;15.68;58.83;101384.81;4961720;28;119102;-70
2021/10/15 05:29:48;;;;;;;9.30;5.03;;;;;;;15.70;58.81;101380.25;4951530;28;119508;-70
2021/10/15 05:32:16;;;;;;;8.65;4.65;;;;;;;15.72;58.96;101377.50;4953933;28;124082;-71
2021/10/15 05:34:44;;;;;;;9.30;4.78;;;;;;;15.74;59.02;101380.97;4954179;28;123398;-70
2021/10/15 05:37:12;;;;;;;8.77;4.93;;;;;;;15.75;58.84;101383.56;4935637;28;119323;-70
2021/10/15 05:39:39;;;;;;;10.10;5.05;;;;;;;15.76;58.88;101384.41;4903237;28;118360;-71
2021/10/15 05:42:06;;;;;;;10.05;5.07;;;;;;;15.79;58.89;101388.72;4956516;28;125232;-70
2021/10/15 05:44:33;;;;;;;8.48;4.85;;;;;;;15.80;58.95;101390.44;4963248;28;124725;-70
2021/10/15 05:47:04;;;;;;;10.45;5.10;;;;;;;15.81;58.89;101386.81;4957686;28;119301;-70
2021/10/15 05:49:33;;;;;;;9.73;5.07;;;;;;;15.83;58.79;101390.28;4956641;28;119890;-70
2021/10/15 05:52:04;;;;;;;10.02;5.07;;;;;;;15.84;59.06;101391.97;4955376;28;123979;-70
2021/10/15 05:59:57;;;;;;;9.88;5.00;;;;;;;15.85;59.02;101388.38;4949607;28;119178;-70
2021/10/15 06:02:33;;;;;;;12.90;5.10;;;;;;;15.86;59.03;101382.06;4956029;28;123948;-69
2021/10/15 06:16:14;;;;;;;9.27;5.20;;;;;;;15.92;59.37;101368.38;4952596;28;123790;-70
2021/10/15 06:18:46;;;;;;;11.25;5.80;;;;;;;15.94;59.17;101366.44;4950124;28;120895;-70
2021/10/15 06:21:13;;;;;;;9.30;5.30;;;;;;;15.96;59.11;101359.22;4943328;28;118947;-69
2021/10/15 06:23:40;;;;;;;8.77;5.43;;;;;;;15.97;59.22;101366.25;4957234;28;124120;-69
2021/10/15 06:26:07;;;;;;;12.43;5.47;;;;;;;15.97;59.20;101371.59;4954338;28;124837;-70
2021/10/15 06:28:35;;;;;;;9.30;5.25;;;;;;;16.00;59.37;101375.91;4955267;28;119413;-69
2021/10/15 06:31:03;;;;;;;11.75;5.68;;;;;;;16.01;59.28;101383.84;4964701;28;118800;-69
2021/10/15 06:33:30;;;;;;;10.73;5.75;;;;;;;16.02;59.42;101380.22;4957977;28;124105;-70
2021/10/15 06:35:57;;;;;;;12.73;5.43;;;;;;;16.02;59.22;101374.88;4967567;28;123807;-69
2021/10/15 06:38:24;;;;;;;10.55;5.40;;;;;;;16.03;59.45;101376.59;4964825;28;119641;-69
2021/10/15 06:40:51;;;;;;;9.32;5.90;;;;;;;16.03;59.48;101376.59;4956665;28;118168;-68
2021/10/15 06:43:18;;;;;;;10.27;5.85;;;;;;;16.04;59.39;101375.63;4956380;28;124232;-67
2021/10/15 06:45:45;;;;;;;8.32;5.45;;;;;;;16.04;59.35;101378.31;4959470;28;123784;-68
2021/10/15 06:48:13;;;;;;;8.85;5.35;;;;;;;16.05;59.41;101385.38;4942607;28;118433;-68
2021/10/15 06:50:40;;;;;;;9.55;5.93;;;;;;;16.04;59.61;101389.00;4964791;28;118990;-68
2021/10/15 06:53:09;;;;;;;9.23;5.95;;;;;;;16.06;59.38;101387.09;4959532;28;123917;-68
2021/10/15 06:55:37;;;;;;;11.07;5.93;;;;;;;16.07;59.46;101388.81;4952883;28;124144;-67
2021/10/15 06:58:05;;;;;;;10.13;6.07;;;;;;;16.09;59.55;101397.59;4953991;28;119334;-67
2021/10/15 07:00:32;;;;;;;9.23;5.50;;;;;;;16.11;59.68;101389.50;4946761;28;118831;-67
2021/10/15 07:03:00;;;;;;;10.52;5.93;;;;;;;16.12;59.67;101397.44;4945951;28;124309;-68
2021/10/15 07:05:27;;;;;;;11.88;5.82;;;;;;;16.14;59.74;101400.88;4944053;28;124143;-67
2021/10/15 07:07:55;;;;;;;9.77;5.70;;;;;;;16.17;59.54;101399.81;4950033;28;120498;-67
2021/10/15 07:10:23;;;;;;;10.77;5.78;;;;;;;16.18;59.70;101401.56;4943634;28;120230;-68
2021/10/15 07:12:51;;;;;;;9.55;5.82;;;;;;;16.20;59.62;101410.34;4937826;28;124859;-67
2021/10/15 07:15:18;;;;;;;12.45;6.50;;;;;;;16.21;59.66;101405.84;4931204;28;123761;-68
2021/10/15 07:17:45;;;;;;;12.00;6.32;;;;;;;16.21;59.84;101412.03;4940721;28;119175;-68
2021/10/15 07:20:12;;;;;;;10.00;6.03;;;;;;;16.24;59.85;101416.34;4943272;28;119174;-68
2021/10/15 07:22:39;;;;;;;12.20;6.32;;;;;;;16.26;59.83;101414.44;4942168;28;124362;-68
2021/10/15 07:25:09;;;;;;;13.45;6.50;;;;;;;16.28;59.85;101417.91;4947363;28;123856;-67
2021/10/15 07:27:37;;;;;;;12.68;6.90;;;;;;;16.31;60.07;101417.69;4951572;28;118597;-67
2021/10/15 07:30:07;;;;;;;14.38;6.78;;;;;;;16.35;59.92;101419.25;4942680;28;118891;-67
2021/10/15 07:32:35;;;;;;;12.13;6.68;;;;;;;16.37;60.17;101422.69;4937697;28;124741;-67
2021/10/15 07:35:04;;;;;;;12.95;7.15;;;;;;;16.37;60.04;101425.38;4951005;28;124295;-67
2021/10/15 07:37:31;;;;;;;13.02;7.25;;;;;;;16.36;60.19;101431.66;4933813;28;118802;-68
2021/10/15 07:39:58;;;;;;;13.57;7.25;;;;;;;16.37;60.17;101427.16;4932727;28;119005;-68
2021/10/15 07:42:25;;;;;;;15.10;7.53;;;;;;;16.37;60.47;101444.06;4936522;28;122870;-68
2021/10/15 07:44:53;;;;;;;14.02;8.05;;;;;;;16.38;60.40;101461.81;4949209;28;124057;-68
2021/10/15 07:47:20;;;;;;;13.70;8.05;;;;;;;16.37;60.47;101476.16;4951116;28;119989;-68
2021/10/15 07:49:47;;;;;;;12.90;7.78;;;;;;;16.34;60.49;101489.69;4933760;28;119776;-68
2021/10/15 07:52:14;;;;;;;10.40;6.88;;;;;;;16.33;60.95;101506.66;4952135;28;123989;-68
2021/10/15 07:54:42;;;;;;;11.13;6.20;;;;;;;16.30;60.95;101506.88;4931411;28;123804;-69
2021/10/15 07:57:12;;;;;;;11.98;6.72;;;;;;;16.28;61.01;101503.44;4950898;28;120684;-68
2021/10/15 07:59:40;;;;;;;10.98;6.13;;;;;;;16.27;61.04;101507.88;4948762;28;119911;-68
2021/10/15 08:02:08;;;;;;;7.60;5.47;;;;;;;16.27;60.96;101517.72;4938684;28;124195;-68
2021/10/15 08:04:35;;;;;;;8.07;5.10;;;;;;;16.26;61.14;101526.72;4947809;28;124396;-68
2021/10/15 08:07:09;;;;;;;7.60;4.80;;;;;;;16.26;61.24;101526.72;4929417;28;119601;-67
2021/10/15 08:09:36;;;;;;;7.22;4.65;;;;;;;16.26;61.09;101526.72;4950000;28;119039;-68
2021/10/15 08:12:04;;;;;;;6.43;3.72;;;;;;;16.26;61.20;101534.72;4950136;28;124068;-67
2021/10/15 08:14:31;;;;;;;5.10;2.85;;;;;;;16.23;61.18;101541.09;4947894;28;124831;-68
2021/10/15 08:16:58;;;;;;;4.40;2.13;;;;;;;16.21;61.25;101552.84;4950196;28;119437;-67
2021/10/15 08:22:26;;;;;;;1.20;0.80;;;;;;;15.63;61.62;101571.13;5014313;28;96483;-82
2021/10/15 08:25:04;;;;;;;2.80;0.90;;;;;;;15.51;62.10;101582.50;5024062;28;107792;-82
2021/10/15 08:42:04;;;;;;;1.95;0.60;;;;;;;13.23;65.95;101610.38;5060441;27;96637;-79
2021/10/15 08:44:42;;;;;;;0.68;0.43;;;;;;;13.49;65.96;101599.56;5034570;27;107802;-79
2021/10/15 08:47:12;;;;;;;1.83;0.50;;;;;;;13.89;65.19;101611.03;5015008;22;123151;-66
2021/10/15 08:52:47;;;;;;;1.70;0.60;;;;;;;14.55;63.46;101619.38;4862811;28;107964;-72
2021/10/15 08:55:15;;;;;;;5.68;0.73;;;;;;;14.74;63.13;101619.34;4870794;28;106973;-71
2021/10/15 08:57:56;;;;;;;1.58;0.63;;;;;;;14.92;62.98;101622.91;4869734;28;124991;-71
2021/10/15 09:00:31;;;;;;;2.05;0.80;;;;;;;15.07;62.64;101625.72;4866209;28;123837;-71
2021/10/15 09:03:21;;;;;;;3.50;0.93;;;;;;;15.17;62.38;101629.66;4868253;28;107272;-71
2021/10/15 09:06:00;;;;;;;2.65;0.75;;;;;;;15.26;62.00;101631.84;4871223;28;107256;-71
2021/10/15 09:08:45;;;;;;;3.90;0.70;;;;;;;15.35;62.10;101630.50;5403634;23;124744;-72
2021/10/15 09:11:34;;;;;;;1.05;0.60;;;;;;;15.43;61.86;101638.13;4892577;28;123393;-73
2021/10/15 09:14:23;;;;;;;2.17;0.65;;;;;;;15.51;61.90;101646.56;4906059;28;106354;-73
2021/10/15 09:16:51;;;;;;;3.35;0.60;;;;;;;15.56;61.58;101655.22;4886650;28;107388;-73
2021/10/15 09:29:40;;;;;;;2.45;0.98;;;;;;;14.04;64.85;101655.59;5031601;28;96987;-72
2021/10/15 09:32:07;;;;;;;2.45;0.70;;;;;;;14.23;64.91;101660.06;5020601;28;107352;-71
2021/10/15 09:34:35;;;;;;;3.92;1.00;;;;;;;14.54;64.65;101665.66;5009790;28;124147;-73
2021/10/15 09:37:10;;;;;;;2.45;0.70;;;;;;;14.86;64.03;101665.91;5006391;28;124298;-72
2021/10/15 09:39:37;;;;;;;1.65;0.70;;;;;;;15.15;63.52;101682.25;5002026;28;107393;-72
2021/10/15 09:42:20;;;;;;;3.40;0.90;;;;;;;15.38;63.30;101689.91;5005105;28;107824;-72
2021/10/15 09:44:47;;;;;;;1.73;0.70;;;;;;;15.56;62.81;101693.44;4996862;28;123969;-73
2021/10/15 09:47:24;;;;;;;3.40;0.95;;;;;;;15.72;62.41;101697.97;4992839;28;123719;-73
2021/10/15 09:49:52;;;;;;;3.63;0.90;;;;;;;15.81;62.11;101686.00;5011097;28;107301;-73
2021/10/15 09:52:36;;;;;;;3.97;1.00;;;;;;;15.90;62.20;101701.53;5002607;22;106016;-66
2021/10/15 09:55:36;;;;;;;2.10;0.77;;;;;;;15.97;61.87;101694.88;4976756;28;123524;-65
2021/10/15 09:58:16;;;;;;;2.70;0.77;;;;;;;16.05;61.63;101697.13;4986231;28;124257;-65
2021/10/15 10:00:49;;;;;;;4.43;1.00;;;;;;;16.14;61.73;101699.31;4978039;28;107499;-65
2021/10/15 10:03:18;;;;;;;3.78;1.05;;;;;;;16.22;61.72;101712.25;4991579;28;107451;-66
2021/10/15 10:10:55;;;;;;;1.83;0.80;;;;;;;16.01;61.97;101717.84;5002874;28;97874;-71
2021/10/15 10:13:22;;;;;;;3.33;0.93;;;;;;;16.05;62.12;101716.72;5036223;27;106062;-72
2021/10/15 10:15:49;;;;;;;4.35;1.00;;;;;;;16.15;61.96;101723.28;4989436;28;123728;-72
2021/10/15 10:18:25;;;;;;;4.07;0.90;;;;;;;16.28;61.73;101717.28;5008278;28;124696;-71
2021/10/15 10:21:09;;;;;;;2.15;1.05;;;;;;;16.40;61.64;101721.94;4997814;28;107516;-72
2021/10/15 10:23:51;;;;;;;3.97;1.10;;;;;;;16.49;61.21;101721.41;4976288;28;106233;-72
2021/10/15 10:26:21;;;;;;;2.00;1.00;;;;;;;16.60;61.21;101728.00;4977207;28;123738;-73
2021/10/15 10:29:04;;;;;;;5.75;1.10;;;;;;;16.69;61.08;101728.34;4981019;28;123993;-72
2021/10/15 10:31:33;;;;;;;4.50;1.10;;;;;;;16.76;60.92;101723.47;4984242;28;107514;-72
2021/10/15 10:34:03;;;;;;;2.88;0.88;;;;;;;16.84;60.91;101736.44;4977442;28;107270;-72
2021/10/15 10:36:33;;;;;;;4.68;1.05;;;;;;;16.91;60.72;101743.19;4988247;28;124196;-72
2021/10/15 10:39:18;;;;;;;4.18;1.00;;;;;;;16.95;60.47;101738.53;4981332;28;124834;-72
2021/10/15 10:42:04;;;;;;;;;;;;;;;17.00;60.59;101747.16;4985519;28;106711;-72
2021/10/15 10:44:32;;;;;;;4.03;1.02;;;;;;;17.03;60.30;101747.00;5020646;27;107348;-72
2021/10/15 10:47:17;;;;;;;4.65;1.00;;;;;;;17.06;60.19;101741.44;4978741;28;124848;-72
2021/10/15 10:50:05;;;;;;;2.40;0.90;;;;;;;17.14;60.34;101744.56;4990775;28;123738;-72
2021/10/15 10:52:35;;;;;;;3.13;1.00;;;;;;;17.22;60.34;101747.63;4993547;28;107312;-73
2021/10/15 10:55:04;;;;;;;4.78;1.20;;;;;;;17.35;60.30;101746.88;4979370;28;105415;-73
2021/10/15 10:57:39;;;;;;;3.78;0.90;;;;;;;17.43;59.90;101745.50;4970431;28;122658;-73
2021/10/15 11:00:22;;;;;;;5.05;0.82;;;;;;;17.51;59.82;101750.38;4979029;28;123834;-72
2021/10/15 11:02:52;;;;;;;2.95;1.00;;;;;;;17.56;59.49;101752.81;4977641;28;107441;-72
2021/10/15 11:05:29;;;;;;;3.50;0.90;;;;;;;17.59;59.11;101756.13;4990028;28;106215;-73
2021/10/15 11:08:24;;;;;;;4.60;1.30;;;;;;;17.63;59.26;101752.34;4989977;28;123847;-72
2021/10/15 11:10:52;;;;;;;6.80;1.00;;;;;;;17.71;58.96;101750.06;4986874;28;123902;-72
2021/10/15 11:13:33;;;;;;;4.57;1.00;;;;;;;17.76;58.32;101746.22;4985015;28;107282;-73
2021/10/15 11:16:00;;;;;;;2.35;1.02;;;;;;;17.81;58.19;101760.22;4981725;28;107284;-72
2021/10/15 11:18:27;;;;;;;8.90;1.05;;;;;;;17.88;58.28;101753.56;5007000;27;123230;-73
2021/10/15 11:20:55;;;;;;;4.20;1.02;;;;;;;17.96;58.22;101748.59;4981095;28;124548;-72
2021/10/15 11:23:22;;;;;;;4.50;1.00;;;;;;;18.06;57.86;101749.75;4969849;28;107876;-73
2021/10/15 11:25:49;;;;;;;5.75;0.90;;;;;;;18.14;57.33;101756.44;4967861;28;107576;-74
2021/10/15 11:28:19;;;;;;;3.40;0.88;;;;;;;18.20;57.36;101761.44;4969735;28;124711;-72
2021/10/15 11:30:48;;;;;;;3.35;1.00;;;;;;;18.25;56.94;101765.56;4981203;28;123570;-72
2021/10/15 11:33:25;;;;;;;4.07;0.95;;;;;;;18.32;56.93;101766.00;4980956;28;107398;-72
2021/10/15 11:35:54;;;;;;;5.53;0.85;;;;;;;18.38;56.73;101756.72;4979696;28;107632;-71
2021/10/15 11:38:25;;;;;;;5.82;1.10;;;;;;;18.44;56.64;101759.88;4981759;28;124243;-71
2021/10/15 11:40:55;;;;;;;5.03;1.00;;;;;;;18.51;56.30;101754.13;4984177;28;124005;-72
2021/10/15 11:43:28;;;;;;;4.75;1.33;;;;;;;18.56;55.95;101765.44;5001995;28;107673;-72
2021/10/15 11:45:58;;;;;;;5.03;0.77;;;;;;;18.56;55.48;101768.09;4981910;28;107102;-73
2021/10/15 11:48:41;;;;;;;2.78;0.80;;;;;;;18.49;55.13;101773.84;4971292;28;126396;-73
2021/10/15 11:51:14;;;;;;;5.32;0.90;;;;;;;18.47;55.27;101775.75;4991196;28;124047;-72
2021/10/15 11:53:50;;;;;;;3.00;0.80;;;;;;;18.52;55.26;101777.31;4975690;28;107284;-72
2021/10/15 11:56:22;;;;;;;4.57;0.85;;;;;;;18.55;54.83;101782.47;4985172;28;107577;-73
2021/10/15 11:58:51;;;;;;;4.30;0.80;;;;;;;18.59;54.66;101773.25;4972123;28;123911;-72
2021/10/15 12:03:52;;;;;;;3.78;0.90;;;;;;;18.58;54.42;101766.19;5004502;28;97029;-72
2021/10/15 12:06:24;;;;;;;7.50;0.98;;;;;;;18.58;54.20;101771.56;4996588;28;107133;-72
2021/10/15 12:09:01;;;;;;;6.35;0.95;;;;;;;18.63;54.15;101774.81;5008994;28;122950;-72
2021/10/15 12:11:36;;;;;;;4.75;1.13;;;;;;;18.70;54.27;101770.75;4995919;28;123751;-72
2021/10/15 12:14:09;;;;;;;;;;;;;;;18.77;55.25;101772.06;5001771;28;107371;-72
2021/10/15 12:16:42;;;;;;;2.80;0.73;;;;;;;18.85;53.77;101785.03;5004914;28;106189;-73
2021/10/15 12:19:18;;;;;;;6.68;0.90;;;;;;;18.76;53.00;101786.47;5009167;28;124892;-74
2021/10/15 12:21:47;;;;;;;3.80;0.90;;;;;;;18.68;52.55;101788.78;5009976;28;123719;-73
2021/10/15 12:24:41;;;;;;;5.07;0.98;;;;;;;18.58;52.47;101795.69;4996287;28;107767;-72